sensor_id;sensor_type;location;lat;lon;timestamp;pressure;altitude;pressure_sealevel;temperature;humidity
47716;BME280;33476;50.984;3.538;2023-04-30T00:01:36;102357.13;;;11.62;59.08
47716;BME280;33476;50.984;3.538;2023-04-30T00:04:02;102354.56;;;11.60;59.24
47716;BME280;33476;50.984;3.538;2023-04-30T00:06:27;102348.47;;;11.60;59.27
47716;BME280;33476;50.984;3.538;2023-04-30T00:08:53;102344.03;;;11.62;58.84
47716;BME280;33476;50.984;3.538;2023-04-30T00:11:18;102341.53;;;11.59;59.02
47716;BME280;33476;50.984;3.538;2023-04-30T00:13:43;102339.75;;;11.59;58.87
47716;BME280;33476;50.984;3.538;2023-04-30T00:16:09;102336.31;;;11.57;58.93
47716;BME280;33476;50.984;3.538;2023-04-30T00:18:35;102339.06;;;11.52;58.86
47716;BME280;33476;50.984;3.538;2023-04-30T00:21:01;102338.31;;;11.47;59.54
47716;BME280;33476;50.984;3.538;2023-04-30T00:23:26;102342.81;;;11.44;58.76
47716;BME280;33476;50.984;3.538;2023-04-30T00:25:51;102335.88;;;11.41;59.24
47716;BME280;33476;50.984;3.538;2023-04-30T00:28:17;102338.59;;;11.38;59.14
47716;BME280;33476;50.984;3.538;2023-04-30T00:30:42;102338.69;;;11.35;59.37
47716;BME280;33476;50.984;3.538;2023-04-30T00:33:07;102337.81;;;11.35;59.37
47716;BME280;33476;50.984;3.538;2023-04-30T00:35:33;102335.25;;;11.32;59.49
47716;BME280;33476;50.984;3.538;2023-04-30T00:37:58;102338.78;;;11.31;59.54
47716;BME280;33476;50.984;3.538;2023-04-30T00:40:23;102336.31;;;11.26;59.39
47716;BME280;33476;50.984;3.538;2023-04-30T00:42:49;102341.59;;;11.23;59.59
47716;BME280;33476;50.984;3.538;2023-04-30T00:45:16;102345.13;;;11.22;59.52
47716;BME280;33476;50.984;3.538;2023-04-30T00:47:46;102335.66;;;11.18;59.62
47716;BME280;33476;50.984;3.538;2023-04-30T00:50:11;102332.28;;;11.13;59.66
47716;BME280;33476;50.984;3.538;2023-04-30T00:52:43;102338.41;;;11.12;59.70
47716;BME280;33476;50.984;3.538;2023-04-30T00:55:12;102334.09;;;11.11;59.74
47716;BME280;33476;50.984;3.538;2023-04-30T00:57:38;102342.75;;;11.13;59.46
47716;BME280;33476;50.984;3.538;2023-04-30T01:00:05;102337.63;;;11.08;59.43
47716;BME280;33476;50.984;3.538;2023-04-30T01:02:34;102336.81;;;11.06;59.43
47716;BME280;33476;50.984;3.538;2023-04-30T01:05:01;102335.94;;;11.06;59.44
47716;BME280;33476;50.984;3.538;2023-04-30T01:07:26;102340.31;;;11.05;59.33
47716;BME280;33476;50.984;3.538;2023-04-30T01:09:53;102336.91;;;11.03;59.39
47716;BME280;33476;50.984;3.538;2023-04-30T01:15:19;102337.06;;;10.97;59.49
47716;BME280;33476;50.984;3.538;2023-04-30T01:20:18;102337.06;;;10.97;59.35
47716;BME280;33476;50.984;3.538;2023-04-30T01:28:15;102346.84;;;10.89;59.65
47716;BME280;33476;50.984;3.538;2023-04-30T01:30:42;102341.53;;;10.92;59.52
47716;BME280;33476;50.984;3.538;2023-04-30T01:33:12;102340.66;;;10.93;59.76
47716;BME280;33476;50.984;3.538;2023-04-30T01:36:02;102349.50;;;10.87;59.91
47716;BME280;33476;50.984;3.538;2023-04-30T01:41:09;102340.84;;;10.84;60.05
47716;BME280;33476;50.984;3.538;2023-04-30T01:44:06;102348.69;;;10.84;59.99
47716;BME280;33476;50.984;3.538;2023-04-30T01:46:36;102341.56;;;10.90;59.53
47716;BME280;33476;50.984;3.538;2023-04-30T01:49:14;102343.47;;;10.84;59.79
47716;BME280;33476;50.984;3.538;2023-04-30T01:51:44;102347.84;;;10.83;59.58
47716;BME280;33476;50.984;3.538;2023-04-30T01:57:05;102341.97;;;10.74;59.71
47716;BME280;33476;50.984;3.538;2023-04-30T01:59:33;102336.72;;;10.75;59.71
47716;BME280;33476;50.984;3.538;2023-04-30T02:01:58;102340.19;;;10.76;59.76
47716;BME280;33476;50.984;3.538;2023-04-30T02:04:24;102342.84;;;10.74;59.73
47716;BME280;33476;50.984;3.538;2023-04-30T02:06:49;102337.63;;;10.74;59.65
47716;BME280;33476;50.984;3.538;2023-04-30T02:09:15;102338.56;;;10.72;59.61
47716;BME280;33476;50.984;3.538;2023-04-30T02:11:40;102346.44;;;10.70;59.55
47716;BME280;33476;50.984;3.538;2023-04-30T02:14:06;102342.16;;;10.66;59.57
47716;BME280;33476;50.984;3.538;2023-04-30T02:16:31;102340.56;;;10.60;59.71
47716;BME280;33476;50.984;3.538;2023-04-30T02:18:56;102336.25;;;10.58;59.65
47716;BME280;33476;50.984;3.538;2023-04-30T02:21:22;102331.97;;;10.55;59.62
47716;BME280;33476;50.984;3.538;2023-04-30T02:23:47;102336.34;;;10.55;59.67
47716;BME280;33476;50.984;3.538;2023-04-30T02:26:13;102338.19;;;10.50;59.81
47716;BME280;33476;50.984;3.538;2023-04-30T02:28:38;102338.22;;;10.48;59.82
47716;BME280;33476;50.984;3.538;2023-04-30T02:31:04;102335.72;;;10.45;59.90
47716;BME280;33476;50.984;3.538;2023-04-30T02:33:30;102327.91;;;10.42;59.82
47716;BME280;33476;50.984;3.538;2023-04-30T02:35:57;102318.38;;;10.41;59.95
47716;BME280;33476;50.984;3.538;2023-04-30T02:38:22;102321.03;;;10.39;59.80
47716;BME280;33476;50.984;3.538;2023-04-30T02:40:48;102319.41;;;10.35;59.93
47716;BME280;33476;50.984;3.538;2023-04-30T02:43:13;102319.44;;;10.32;59.92
47716;BME280;33476;50.984;3.538;2023-04-30T02:45:38;102318.59;;;10.32;60.09
47716;BME280;33476;50.984;3.538;2023-04-30T02:48:04;102326.47;;;10.30;59.80
47716;BME280;33476;50.984;3.538;2023-04-30T02:50:30;102314.34;;;10.28;59.98
47716;BME280;33476;50.984;3.538;2023-04-30T02:52:55;102328.25;;;10.28;60.40
47716;BME280;33476;50.984;3.538;2023-04-30T02:55:20;102323.94;;;10.27;60.29
47716;BME280;33476;50.984;3.538;2023-04-30T02:57:46;102324.78;;;10.28;60.31
47716;BME280;33476;50.984;3.538;2023-04-30T03:00:11;102328.25;;;10.28;60.12
47716;BME280;33476;50.984;3.538;2023-04-30T03:02:37;102325.69;;;10.27;60.35
47716;BME280;33476;50.984;3.538;2023-04-30T03:05:03;102325.69;;;10.27;60.18
47716;BME280;33476;50.984;3.538;2023-04-30T03:07:28;102330.06;;;10.26;60.24
47716;BME280;33476;50.984;3.538;2023-04-30T03:09:53;102323.97;;;10.24;60.02
47716;BME280;33476;50.984;3.538;2023-04-30T03:12:19;102322.28;;;10.22;59.97
47716;BME280;33476;50.984;3.538;2023-04-30T03:14:44;102314.47;;;10.20;60.01
47716;BME280;33476;50.984;3.538;2023-04-30T03:17:10;102324.97;;;10.19;60.15
47716;BME280;33476;50.984;3.538;2023-04-30T03:19:35;102319.75;;;10.19;60.20
47716;BME280;33476;50.984;3.538;2023-04-30T03:22:01;102325.78;;;10.21;59.77
47716;BME280;33476;50.984;3.538;2023-04-30T03:24:26;102327.56;;;10.19;59.61
47716;BME280;33476;50.984;3.538;2023-04-30T03:26:52;102325.81;;;10.19;59.80
47716;BME280;33476;50.984;3.538;2023-04-30T03:29:17;102320.59;;;10.18;59.48
47716;BME280;33476;50.984;3.538;2023-04-30T03:31:42;102315.47;;;10.14;59.76
47716;BME280;33476;50.984;3.538;2023-04-30T03:34:08;102321.59;;;10.13;59.81
47716;BME280;33476;50.984;3.538;2023-04-30T03:36:34;102317.25;;;10.12;59.86
47716;BME280;33476;50.984;3.538;2023-04-30T03:39:00;102313.78;;;10.12;59.47
47716;BME280;33476;50.984;3.538;2023-04-30T03:41:25;102323.41;;;10.10;60.05
47716;BME280;33476;50.984;3.538;2023-04-30T03:43:51;102318.19;;;10.10;59.68
47716;BME280;33476;50.984;3.538;2023-04-30T03:46:16;102324.28;;;10.10;59.82
47716;BME280;33476;50.984;3.538;2023-04-30T03:48:42;102318.22;;;10.08;59.69
47716;BME280;33476;50.984;3.538;2023-04-30T03:51:08;102322.56;;;10.08;59.66
47716;BME280;33476;50.984;3.538;2023-04-30T03:53:33;102325.22;;;10.06;59.96
47716;BME280;33476;50.984;3.538;2023-04-30T03:55:59;102319.13;;;10.06;59.91
47716;BME280;33476;50.984;3.538;2023-04-30T03:58:25;102320.00;;;10.06;59.79
47716;BME280;33476;50.984;3.538;2023-04-30T04:00:50;102320.84;;;10.07;59.69
47716;BME280;33476;50.984;3.538;2023-04-30T04:03:15;102331.34;;;10.05;59.87
47716;BME280;33476;50.984;3.538;2023-04-30T04:05:41;102323.59;;;10.01;59.95
47716;BME280;33476;50.984;3.538;2023-04-30T04:08:06;102328.81;;;10.01;59.67
47716;BME280;33476;50.984;3.538;2023-04-30T04:10:33;102325.41;;;9.97;60.14
47716;BME280;33476;50.984;3.538;2023-04-30T04:12:59;102328.88;;;9.98;59.88
47716;BME280;33476;50.984;3.538;2023-04-30T04:15:24;102324.47;;;10.01;59.93
47716;BME280;33476;50.984;3.538;2023-04-30T04:17:50;102323.59;;;10.01;59.55
47716;BME280;33476;50.984;3.538;2023-04-30T04:20:16;102322.78;;;9.99;59.50
47716;BME280;33476;50.984;3.538;2023-04-30T04:22:42;102317.66;;;9.94;59.94
47716;BME280;33476;50.984;3.538;2023-04-30T04:25:07;102327.34;;;9.89;59.81
47716;BME280;33476;50.984;3.538;2023-04-30T04:27:33;102326.47;;;9.89;59.80
47716;BME280;33476;50.984;3.538;2023-04-30T04:30:00;102318.69;;;9.87;60.15
47716;BME280;33476;50.984;3.538;2023-04-30T04:32:26;102314.34;;;9.86;60.20
47716;BME280;33476;50.984;3.538;2023-04-30T04:34:51;102321.34;;;9.85;59.87
47716;BME280;33476;50.984;3.538;2023-04-30T04:37:18;102319.59;;;9.86;60.32
47716;BME280;33476;50.984;3.538;2023-04-30T04:39:44;102317.81;;;9.87;60.33
47716;BME280;33476;50.984;3.538;2023-04-30T04:42:09;102329.13;;;9.87;60.41
47716;BME280;33476;50.984;3.538;2023-04-30T04:44:35;102323.03;;;9.87;60.46
47716;BME280;33476;50.984;3.538;2023-04-30T04:47:01;102325.63;;;9.88;60.15
47716;BME280;33476;50.984;3.538;2023-04-30T04:49:28;102329.88;;;9.92;60.41
47716;BME280;33476;50.984;3.538;2023-04-30T04:51:53;102330.63;;;9.97;60.27
47716;BME280;33476;50.984;3.538;2023-04-30T04:54:19;102332.31;;;10.01;60.03
47716;BME280;33476;50.984;3.538;2023-04-30T04:56:45;102324.38;;;10.06;60.39
47716;BME280;33476;50.984;3.538;2023-04-30T04:59:11;102330.34;;;10.11;60.16
47716;BME280;33476;50.984;3.538;2023-04-30T05:01:37;102332.84;;;10.16;60.35
47716;BME280;33476;50.984;3.538;2023-04-30T05:04:02;102334.47;;;10.21;60.33
47716;BME280;33476;50.984;3.538;2023-04-30T05:06:27;102337.03;;;10.24;60.39
47716;BME280;33476;50.984;3.538;2023-04-30T05:08:53;102329.97;;;10.29;60.40
47716;BME280;33476;50.984;3.538;2023-04-30T05:11:18;102335.19;;;10.29;60.45
47716;BME280;33476;50.984;3.538;2023-04-30T05:13:43;102334.22;;;10.33;60.46
47716;BME280;33476;50.984;3.538;2023-04-30T05:16:09;102331.50;;;10.38;60.74
47716;BME280;33476;50.984;3.538;2023-04-30T05:18:34;102333.13;;;10.44;60.78
47716;BME280;33476;50.984;3.538;2023-04-30T05:21:00;102334.75;;;10.48;61.06
47716;BME280;33476;50.984;3.538;2023-04-30T05:23:25;102329.47;;;10.51;61.00
47716;BME280;33476;50.984;3.538;2023-04-30T05:25:51;102335.44;;;10.56;61.03
47716;BME280;33476;50.984;3.538;2023-04-30T05:28:17;102332.75;;;10.59;60.95
47716;BME280;33476;50.984;3.538;2023-04-30T05:30:42;102338.66;;;10.67;61.11
47716;BME280;33476;50.984;3.538;2023-04-30T05:33:07;102343.78;;;10.72;61.21
47716;BME280;33476;50.984;3.538;2023-04-30T05:35:33;102342.75;;;10.79;61.25
47716;BME280;33476;50.984;3.538;2023-04-30T05:38:00;102342.59;;;10.85;61.29
47716;BME280;33476;50.984;3.538;2023-04-30T05:40:26;102336.28;;;10.92;61.48
47716;BME280;33476;50.984;3.538;2023-04-30T05:42:52;102342.22;;;10.98;61.78
47716;BME280;33476;50.984;3.538;2023-04-30T05:45:17;102346.47;;;11.04;61.64
47716;BME280;33476;50.984;3.538;2023-04-30T05:47:43;102344.47;;;11.14;61.69
47716;BME280;33476;50.984;3.538;2023-04-30T05:50:08;102342.63;;;11.17;61.83
47716;BME280;33476;50.984;3.538;2023-04-30T05:52:34;102343.31;;;11.24;61.90
47716;BME280;33476;50.984;3.538;2023-04-30T05:54:59;102351.97;;;11.28;62.01
47716;BME280;33476;50.984;3.538;2023-04-30T05:57:25;102340.50;;;11.32;62.20
47716;BME280;33476;50.984;3.538;2023-04-30T05:59:50;102350.72;;;11.41;62.32
47716;BME280;33476;50.984;3.538;2023-04-30T06:02:16;102348.75;;;11.49;62.39
47716;BME280;33476;50.984;3.538;2023-04-30T06:04:42;102348.53;;;11.57;62.23
47716;BME280;33476;50.984;3.538;2023-04-30T06:07:08;102352.75;;;11.62;62.16
47716;BME280;33476;50.984;3.538;2023-04-30T06:09:33;102343.03;;;11.66;62.58
47716;BME280;33476;50.984;3.538;2023-04-30T06:11:58;102344.63;;;11.71;62.26
47716;BME280;33476;50.984;3.538;2023-04-30T06:14:24;102354.88;;;11.80;62.24
47716;BME280;33476;50.984;3.538;2023-04-30T06:16:50;102347.72;;;11.87;62.23
47716;BME280;33476;50.984;3.538;2023-04-30T06:19:15;102351.09;;;11.91;62.57
47716;BME280;33476;50.984;3.538;2023-04-30T06:21:41;102348.25;;;11.98;62.27
47716;BME280;33476;50.984;3.538;2023-04-30T06:24:08;102348.81;;;12.08;61.86
47716;BME280;33476;50.984;3.538;2023-04-30T06:26:33;102352.97;;;12.17;61.99
47716;BME280;33476;50.984;3.538;2023-04-30T06:28:59;102345.91;;;12.19;61.78
47716;BME280;33476;50.984;3.538;2023-04-30T06:31:25;102349.16;;;12.27;61.99
47716;BME280;33476;50.984;3.538;2023-04-30T06:33:50;102350.63;;;12.35;62.23
47716;BME280;33476;50.984;3.538;2023-04-30T06:36:16;102351.16;;;12.47;62.26
47716;BME280;33476;50.984;3.538;2023-04-30T06:38:42;102347.44;;;12.54;61.73
47716;BME280;33476;50.984;3.538;2023-04-30T06:41:08;102348.09;;;12.60;61.51
47716;BME280;33476;50.984;3.538;2023-04-30T06:43:33;102345.19;;;12.70;61.75
47716;BME280;33476;50.984;3.538;2023-04-30T06:45:59;102356.31;;;12.76;61.61
47716;BME280;33476;50.984;3.538;2023-04-30T06:48:24;102347.38;;;12.82;61.22
47716;BME280;33476;50.984;3.538;2023-04-30T06:50:50;102342.81;;;12.88;61.23
47716;BME280;33476;50.984;3.538;2023-04-30T06:53:15;102340.84;;;12.95;61.07
47716;BME280;33476;50.984;3.538;2023-04-30T06:55:41;102348.50;;;13.01;60.90
47716;BME280;33476;50.984;3.538;2023-04-30T06:58:07;102345.72;;;13.06;60.89
47716;BME280;33476;50.984;3.538;2023-04-30T07:00:33;102344.53;;;13.14;60.74
47716;BME280;33476;50.984;3.538;2023-04-30T07:02:59;102344.59;;;13.13;61.03
47716;BME280;33476;50.984;3.538;2023-04-30T07:05:27;102346.22;;;13.17;60.74
47716;BME280;33476;50.984;3.538;2023-04-30T07:07:52;102351.19;;;13.26;60.52
47716;BME280;33476;50.984;3.538;2023-04-30T07:10:18;102343.84;;;13.36;60.30
47716;BME280;33476;50.984;3.538;2023-04-30T07:12:44;102340.75;;;13.48;60.08
47716;BME280;33476;50.984;3.538;2023-04-30T07:15:09;102342.84;;;13.63;59.98
47716;BME280;33476;50.984;3.538;2023-04-30T07:17:35;102344.28;;;13.72;59.52
47716;BME280;33476;50.984;3.538;2023-04-30T07:20:02;102340.50;;;13.79;59.54
47716;BME280;33476;50.984;3.538;2023-04-30T07:22:29;102342.06;;;13.85;59.47
47716;BME280;33476;50.984;3.538;2023-04-30T07:24:54;102347.25;;;13.86;59.50
47716;BME280;33476;50.984;3.538;2023-04-30T07:27:20;102343.41;;;13.95;59.43
47716;BME280;33476;50.984;3.538;2023-04-30T07:29:45;102342.78;;;14.12;59.00
47716;BME280;33476;50.984;3.538;2023-04-30T07:32:10;102335.31;;;14.23;58.89
47716;BME280;33476;50.984;3.538;2023-04-30T07:34:36;102341.91;;;14.34;58.58
47716;BME280;33476;50.984;3.538;2023-04-30T07:37:02;102340.06;;;14.37;58.27
47716;BME280;33476;50.984;3.538;2023-04-30T07:39:28;102347.63;;;14.44;58.60
47716;BME280;33476;50.984;3.538;2023-04-30T07:41:53;102339.25;;;14.58;58.13
47716;BME280;33476;50.984;3.538;2023-04-30T07:44:18;102350.84;;;14.74;58.12
47716;BME280;33476;50.984;3.538;2023-04-30T07:46:45;102348.69;;;14.84;57.71
47716;BME280;33476;50.984;3.538;2023-04-30T07:49:11;102341.50;;;14.87;57.68
47716;BME280;33476;50.984;3.538;2023-04-30T07:51:36;102345.50;;;14.98;57.40
47716;BME280;33476;50.984;3.538;2023-04-30T07:54:03;102345.09;;;15.07;57.05
47716;BME280;33476;50.984;3.538;2023-04-30T07:56:29;102348.19;;;15.16;57.00
47716;BME280;33476;50.984;3.538;2023-04-30T07:58:54;102346.88;;;15.27;56.58
47716;BME280;33476;50.984;3.538;2023-04-30T08:01:20;102349.16;;;15.34;56.45
47716;BME280;33476;50.984;3.538;2023-04-30T08:03:45;102347.84;;;15.44;55.96
47716;BME280;33476;50.984;3.538;2023-04-30T08:06:10;102345.59;;;15.56;55.61
47716;BME280;33476;50.984;3.538;2023-04-30T08:08:36;102341.66;;;15.66;56.12
47716;BME280;33476;50.984;3.538;2023-04-30T08:11:01;102349.84;;;15.79;56.38
47716;BME280;33476;50.984;3.538;2023-04-30T08:13:27;102351.34;;;15.84;56.12
47716;BME280;33476;50.984;3.538;2023-04-30T08:15:52;102346.25;;;16.00;55.71
47716;BME280;33476;50.984;3.538;2023-04-30T08:18:18;102350.06;;;16.12;55.45
47716;BME280;33476;50.984;3.538;2023-04-30T08:20:43;102347.81;;;16.23;55.20
47716;BME280;33476;50.984;3.538;2023-04-30T08:23:08;102343.81;;;16.33;54.90
47716;BME280;33476;50.984;3.538;2023-04-30T08:25:34;102338.66;;;16.49;55.03
47716;BME280;33476;50.984;3.538;2023-04-30T08:28:00;102336.63;;;16.54;54.42
47716;BME280;33476;50.984;3.538;2023-04-30T08:30:26;102339.81;;;16.61;53.84
47716;BME280;33476;50.984;3.538;2023-04-30T08:32:51;102342.63;;;16.57;53.60
47716;BME280;33476;50.984;3.538;2023-04-30T08:35:16;102334.47;;;16.62;53.70
47716;BME280;33476;50.984;3.538;2023-04-30T08:37:42;102328.72;;;16.73;53.88
47716;BME280;33476;50.984;3.538;2023-04-30T08:40:07;102336.84;;;16.85;53.14
47716;BME280;33476;50.984;3.538;2023-04-30T08:42:40;102333.91;;;16.92;52.75
47716;BME280;33476;50.984;3.538;2023-04-30T08:45:10;102331.47;;;17.04;53.04
47716;BME280;33476;50.984;3.538;2023-04-30T08:47:36;102332.66;;;17.16;52.51
47716;BME280;33476;50.984;3.538;2023-04-30T08:50:03;102329.63;;;17.24;51.92
47716;BME280;33476;50.984;3.538;2023-04-30T08:52:28;102333.19;;;17.40;52.73
47716;BME280;33476;50.984;3.538;2023-04-30T08:54:56;102333.75;;;17.45;52.11
47716;BME280;33476;50.984;3.538;2023-04-30T08:57:22;102326.56;;;17.49;51.37
47716;BME280;33476;50.984;3.538;2023-04-30T08:59:48;102327.75;;;17.59;51.27
47716;BME280;33476;50.984;3.538;2023-04-30T09:02:13;102330.84;;;17.67;51.21
47716;BME280;33476;50.984;3.538;2023-04-30T09:04:39;102327.19;;;17.69;50.76
47716;BME280;33476;50.984;3.538;2023-04-30T09:07:05;102319.22;;;17.71;50.53
47716;BME280;33476;50.984;3.538;2023-04-30T09:09:37;102324.16;;;17.77;49.95
47716;BME280;33476;50.984;3.538;2023-04-30T09:12:13;102318.31;;;17.88;50.13
47716;BME280;33476;50.984;3.538;2023-04-30T09:14:40;102322.91;;;18.00;49.79
47716;BME280;33476;50.984;3.538;2023-04-30T09:17:06;102315.31;;;18.10;49.67
47716;BME280;33476;50.984;3.538;2023-04-30T09:19:33;102313.59;;;18.24;49.39
47716;BME280;33476;50.984;3.538;2023-04-30T09:21:58;102313.69;;;18.39;49.43
47716;BME280;33476;50.984;3.538;2023-04-30T09:24:24;102313.16;;;18.48;49.04
47716;BME280;33476;50.984;3.538;2023-04-30T09:26:50;102308.00;;;18.61;49.13
47716;BME280;33476;50.984;3.538;2023-04-30T09:29:16;102311.00;;;18.70;48.53
47716;BME280;33476;50.984;3.538;2023-04-30T09:31:46;102311.78;;;18.72;47.35
47716;BME280;33476;50.984;3.538;2023-04-30T09:34:11;102305.53;;;18.73;47.39
47716;BME280;33476;50.984;3.538;2023-04-30T09:36:50;102307.88;;;18.78;47.80
47716;BME280;33476;50.984;3.538;2023-04-30T09:39:17;102308.66;;;18.80;47.14
47716;BME280;33476;50.984;3.538;2023-04-30T09:41:42;102311.31;;;18.80;47.26
47716;BME280;33476;50.984;3.538;2023-04-30T09:44:28;102306.53;;;18.87;47.81
47716;BME280;33476;50.984;3.538;2023-04-30T09:46:55;102302.38;;;18.97;47.15
47716;BME280;33476;50.984;3.538;2023-04-30T09:49:21;102309.88;;;19.04;46.62
47716;BME280;33476;50.984;3.538;2023-04-30T09:52:00;102302.66;;;19.06;46.56
47716;BME280;33476;50.984;3.538;2023-04-30T09:54:29;102303.91;;;19.15;45.54
47716;BME280;33476;50.984;3.538;2023-04-30T09:56:57;102299.75;;;19.25;45.32
47716;BME280;33476;50.984;3.538;2023-04-30T09:59:33;102298.63;;;19.29;45.01
47716;BME280;33476;50.984;3.538;2023-04-30T10:02:04;102298.81;;;19.41;45.13
47716;BME280;33476;50.984;3.538;2023-04-30T10:07:07;102295.41;;;19.24;44.18
47716;BME280;33476;50.984;3.538;2023-04-30T10:09:47;102291.53;;;19.30;44.44
47716;BME280;33476;50.984;3.538;2023-04-30T10:12:14;102282.06;;;19.40;43.61
47716;BME280;33476;50.984;3.538;2023-04-30T10:17:49;102287.84;;;19.61;43.59
47716;BME280;33476;50.984;3.538;2023-04-30T10:20:18;102278.41;;;19.71;43.69
47716;BME280;33476;50.984;3.538;2023-04-30T10:22:47;102284.44;;;19.73;43.08
47716;BME280;33476;50.984;3.538;2023-04-30T10:25:12;102281.78;;;19.73;42.36
47716;BME280;33476;50.984;3.538;2023-04-30T10:27:38;102276.59;;;19.72;43.44
47716;BME280;33476;50.984;3.538;2023-04-30T10:30:06;102274.94;;;19.83;42.52
47716;BME280;33476;50.984;3.538;2023-04-30T10:32:47;102260.66;;;19.86;42.13
47716;BME280;33476;50.984;3.538;2023-04-30T10:35:21;102267.06;;;19.96;42.65
47716;BME280;33476;50.984;3.538;2023-04-30T10:37:56;102256.81;;;20.04;42.04
47716;BME280;33476;50.984;3.538;2023-04-30T10:40:27;102259.72;;;20.14;41.97
47716;BME280;33476;50.984;3.538;2023-04-30T10:42:53;102251.00;;;20.12;41.75
47716;BME280;33476;50.984;3.538;2023-04-30T10:45:33;102250.56;;;20.05;42.14
47716;BME280;33476;50.984;3.538;2023-04-30T10:48:00;102244.34;;;20.19;42.78
47716;BME280;33476;50.984;3.538;2023-04-30T10:50:28;102240.25;;;20.28;42.23
47716;BME280;33476;50.984;3.538;2023-04-30T10:53:04;102235.34;;;20.34;41.78
47716;BME280;33476;50.984;3.538;2023-04-30T10:55:30;102235.19;;;20.37;41.05
47716;BME280;33476;50.984;3.538;2023-04-30T10:57:59;102227.06;;;20.26;41.01
47716;BME280;33476;50.984;3.538;2023-04-30T11:00:29;102224.34;;;20.28;41.36
47716;BME280;33476;50.984;3.538;2023-04-30T11:02:57;102216.78;;;20.34;40.56
47716;BME280;33476;50.984;3.538;2023-04-30T11:05:45;102216.72;;;20.36;40.70
47716;BME280;33476;50.984;3.538;2023-04-30T11:08:10;102218.78;;;20.45;40.53
47716;BME280;33476;50.984;3.538;2023-04-30T11:10:36;102216.38;;;20.40;39.90
47716;BME280;33476;50.984;3.538;2023-04-30T11:13:05;102207.31;;;20.44;40.37
47716;BME280;33476;50.984;3.538;2023-04-30T11:15:39;102199.34;;;20.57;40.86
47716;BME280;33476;50.984;3.538;2023-04-30T11:18:06;102206.16;;;20.74;39.70
47716;BME280;33476;50.984;3.538;2023-04-30T11:20:32;102197.13;;;20.76;39.80
47716;BME280;33476;50.984;3.538;2023-04-30T11:23:13;102202.25;;;20.80;39.75
47716;BME280;33476;50.984;3.538;2023-04-30T11:25:43;102191.72;;;20.78;39.63
47716;BME280;33476;50.984;3.538;2023-04-30T11:28:20;102187.16;;;20.80;39.61
47716;BME280;33476;50.984;3.538;2023-04-30T11:30:53;102175.78;;;20.78;39.45
47716;BME280;33476;50.984;3.538;2023-04-30T11:33:19;102182.16;;;20.88;40.34
47716;BME280;33476;50.984;3.538;2023-04-30T11:35:45;102175.16;;;20.87;38.24
47716;BME280;33476;50.984;3.538;2023-04-30T11:38:14;102174.09;;;20.77;38.41
47716;BME280;33476;50.984;3.538;2023-04-30T11:40:42;102163.38;;;20.79;39.41
47716;BME280;33476;50.984;3.538;2023-04-30T11:43:22;102166.13;;;20.77;40.10
47716;BME280;33476;50.984;3.538;2023-04-30T11:46:17;102165.06;;;20.80;39.74
47716;BME280;33476;50.984;3.538;2023-04-30T11:48:44;102168.44;;;20.82;38.38
47716;BME280;33476;50.984;3.538;2023-04-30T11:51:21;102164.53;;;20.74;39.03
47716;BME280;33476;50.984;3.538;2023-04-30T11:53:50;102151.66;;;20.81;38.56
47716;BME280;33476;50.984;3.538;2023-04-30T11:56:22;102149.63;;;20.85;39.37
47716;BME280;33476;50.984;3.538;2023-04-30T11:58:50;102152.59;;;20.93;38.78
47716;BME280;33476;50.984;3.538;2023-04-30T12:01:16;102161.00;;;20.99;39.38
47716;BME280;33476;50.984;3.538;2023-04-30T12:03:42;102154.59;;;21.15;39.57
47716;BME280;33476;50.984;3.538;2023-04-30T12:06:11;102149.34;;;21.26;38.73
47716;BME280;33476;50.984;3.538;2023-04-30T12:08:45;102147.50;;;21.28;37.95
47716;BME280;33476;50.984;3.538;2023-04-30T12:11:27;102142.47;;;21.23;37.55
47716;BME280;33476;50.984;3.538;2023-04-30T12:14:00;102144.09;;;21.13;37.79
47716;BME280;33476;50.984;3.538;2023-04-30T12:16:37;102129.97;;;21.13;37.68
47716;BME280;33476;50.984;3.538;2023-04-30T12:19:03;102131.41;;;21.17;37.93
47716;BME280;33476;50.984;3.538;2023-04-30T12:21:29;102132.88;;;21.34;38.29
47716;BME280;33476;50.984;3.538;2023-04-30T12:23:54;102124.44;;;21.52;38.25
47716;BME280;33476;50.984;3.538;2023-04-30T12:26:20;102132.41;;;21.52;37.46
47716;BME280;33476;50.984;3.538;2023-04-30T12:28:47;102124.25;;;21.43;37.57
47716;BME280;33476;50.984;3.538;2023-04-30T12:31:13;102119.13;;;21.52;38.36
47716;BME280;33476;50.984;3.538;2023-04-30T12:33:38;102133.75;;;21.58;37.55
47716;BME280;33476;50.984;3.538;2023-04-30T12:36:04;102122.09;;;21.48;37.04
47716;BME280;33476;50.984;3.538;2023-04-30T12:38:33;102118.56;;;21.36;37.18
47716;BME280;33476;50.984;3.538;2023-04-30T12:41:03;102112.38;;;21.36;37.08
47716;BME280;33476;50.984;3.538;2023-04-30T12:43:29;102116.56;;;21.51;37.75
47716;BME280;33476;50.984;3.538;2023-04-30T12:45:54;102111.06;;;21.65;37.37
47716;BME280;33476;50.984;3.538;2023-04-30T12:48:24;102111.91;;;21.66;36.77
47716;BME280;33476;50.984;3.538;2023-04-30T12:50:53;102110.22;;;21.65;36.73
47716;BME280;33476;50.984;3.538;2023-04-30T12:53:19;102112.44;;;21.47;37.15
47716;BME280;33476;50.984;3.538;2023-04-30T12:56:11;102106.84;;;21.39;37.86
47716;BME280;33476;50.984;3.538;2023-04-30T12:58:38;102108.09;;;21.46;37.76
47716;BME280;33476;50.984;3.538;2023-04-30T13:01:08;102100.84;;;21.48;37.92
47716;BME280;33476;50.984;3.538;2023-04-30T13:03:34;102107.00;;;21.48;37.77
47716;BME280;33476;50.984;3.538;2023-04-30T13:06:00;102100.84;;;21.48;37.85
47716;BME280;33476;50.984;3.538;2023-04-30T13:08:26;102101.44;;;21.51;36.99
47716;BME280;33476;50.984;3.538;2023-04-30T13:10:52;102102.25;;;21.41;36.46
47716;BME280;33476;50.984;3.538;2023-04-30T13:13:17;102094.94;;;21.31;36.33